createdAt,value
2023-03-22T00:01:16.978Z,168.25
2023-03-22T00:05:16.882Z,168.34
2023-03-22T00:09:16.926Z,165.57
2023-03-22T00:13:17.142Z,166.25
2023-03-22T00:17:17.370Z,167.23
2023-03-22T00:21:17.451Z,165.07
2023-03-22T00:25:17.571Z,165.93
2023-03-22T00:29:17.779Z,167.03
2023-03-22T00:33:17.945Z,164.00
2023-03-22T00:37:18.050Z,162.08
2023-03-22T00:41:18.166Z,163.46
2023-03-22T00:45:18.291Z,164.91
2023-03-22T00:49:18.297Z,162.98
2023-03-22T00:53:18.429Z,160.31
2023-03-22T00:57:18.460Z,163.58
2023-03-22T01:01:18.617Z,163.25
2023-03-22T01:05:18.671Z,161.33
2023-03-22T01:09:18.764Z,163.66
2023-03-22T01:13:18.760Z,160.41
2023-03-22T01:17:18.804Z,162.64
2023-03-22T01:21:18.828Z,159.94
2023-03-22T01:25:18.768Z,162.76
2023-03-22T01:29:18.750Z,160.71
2023-03-22T01:33:18.793Z,160.87
2023-03-22T01:37:18.753Z,159.22
2023-03-22T01:41:18.709Z,161.76
2023-03-22T01:45:18.678Z,156.40
2023-03-22T01:49:18.828Z,157.33
2023-03-22T01:53:18.693Z,159.12
2023-03-22T01:57:18.649Z,155.18
2023-03-22T02:01:18.662Z,159.65
2023-03-22T02:05:18.620Z,160.39
2023-03-22T02:09:18.571Z,157.28
2023-03-22T02:13:18.544Z,156.94
2023-03-22T02:17:18.596Z,156.75
2023-03-22T02:21:18.507Z,157.11
2023-03-22T02:25:18.550Z,158.29
2023-03-22T02:29:18.506Z,154.65
2023-03-22T02:33:18.531Z,152.93
2023-03-22T02:37:18.509Z,152.88
2023-03-22T02:41:18.540Z,151.47
2023-03-22T02:45:18.521Z,150.68
2023-03-22T02:49:18.519Z,149.18
2023-03-22T02:53:18.504Z,155.40
2023-03-22T02:57:18.545Z,154.11
2023-03-22T03:01:18.593Z,152.74
2023-03-22T03:05:18.534Z,151.06
2023-03-22T03:09:18.550Z,154.45
2023-03-22T03:13:18.599Z,148.44
2023-03-22T03:17:18.570Z,152.68
2023-03-22T03:21:18.610Z,152.29
2023-03-22T03:25:18.663Z,151.83
2023-03-22T03:29:18.661Z,151.26
2023-03-22T03:33:18.682Z,148.86
2023-03-22T03:37:18.750Z,147.66
2023-03-22T03:41:18.766Z,149.13
2023-03-22T03:45:18.807Z,151.43
2023-03-22T03:49:18.904Z,150.39
2023-03-22T03:53:18.917Z,148.61
2023-03-22T03:57:18.972Z,147.20
2023-03-22T04:01:19.030Z,147.71
2023-03-22T04:05:19.045Z,145.68
2023-03-22T04:09:19.123Z,147.15
2023-03-22T04:13:19.174Z,146.35
2023-03-22T04:17:19.197Z,147.61
2023-03-22T04:21:19.258Z,147.09
2023-03-22T04:25:19.604Z,147.38
2023-03-22T04:29:19.436Z,145.05
2023-03-22T04:33:19.474Z,147.47
2023-03-22T04:37:19.538Z,146.39
2023-03-22T04:41:19.587Z,146.27
2023-03-22T04:45:19.661Z,140.62
2023-03-22T04:49:19.752Z,141.03
2023-03-22T04:53:19.809Z,144.86
2023-03-22T04:57:19.859Z,145.47
2023-03-22T05:01:20.045Z,143.52
2023-03-22T05:05:20.002Z,137.03
2023-03-22T05:09:22.847Z,126.37
2023-03-22T05:13:20.102Z,106.38
2023-03-22T05:17:20.134Z,99.47
2023-03-22T05:21:20.031Z,87.09
2023-03-22T05:25:19.972Z,78.19
2023-03-22T05:29:19.959Z,68.63
2023-03-22T05:33:19.933Z,62.25
2023-03-22T05:37:19.870Z,60.61
2023-03-22T05:41:19.834Z,57.28
2023-03-22T05:45:19.807Z,58.69
2023-03-22T05:49:19.789Z,57.52
2023-03-22T05:53:19.825Z,57.78
2023-03-22T05:57:19.911Z,60.37
2023-03-22T06:01:19.981Z,57.44
2023-03-22T06:05:20.126Z,61.61
2023-03-22T06:09:20.194Z,63.49
2023-03-22T06:13:20.284Z,61.68
2023-03-22T06:17:20.430Z,63.96
2023-03-22T06:21:20.508Z,60.98
2023-03-22T06:25:20.510Z,67.09
2023-03-22T06:29:20.498Z,72.63
2023-03-22T06:33:20.599Z,75.19
2023-03-22T06:37:20.750Z,76.30
2023-03-22T06:41:21.183Z,74.97
2023-03-22T06:45:20.723Z,78.21
2023-03-22T06:49:20.638Z,78.56
2023-03-22T06:53:20.603Z,109.56
2023-03-22T06:57:20.552Z,124.82
2023-03-22T07:01:22.261Z,115.44
2023-03-22T07:05:20.476Z,123.61
2023-03-22T07:09:20.429Z,123.95
2023-03-22T07:13:20.433Z,125.36
2023-03-22T07:17:20.351Z,126.80
2023-03-22T07:21:20.351Z,130.17
2023-03-22T07:25:20.281Z,128.60
2023-03-22T07:29:20.209Z,133.07
2023-03-22T07:33:20.694Z,130.87
2023-03-22T07:37:20.237Z,131.80
2023-03-22T07:41:20.218Z,128.58
2023-03-22T07:45:20.231Z,130.10
2023-03-22T07:49:20.125Z,136.76
2023-03-22T07:53:20.098Z,133.87
2023-03-22T07:57:20.162Z,138.37
2023-03-22T08:01:19.994Z,129.78
2023-03-22T08:05:19.979Z,123.51
2023-03-22T08:09:20.193Z,119.74
2023-03-22T08:13:19.931Z,118.83
2023-03-22T08:17:20.017Z,115.24
2023-03-22T08:21:20.130Z,114.89
2023-03-22T08:25:20.270Z,109.04
2023-03-22T08:29:22.350Z,103.08
2023-03-22T08:33:20.752Z,112.22
2023-03-22T08:37:20.490Z,99.06
2023-03-22T08:41:20.586Z,85.39
2023-03-22T08:45:20.608Z,73.36
2023-03-22T08:49:20.584Z,80.82
2023-03-22T08:53:20.557Z,70.80
2023-03-22T08:57:20.550Z,63.26
2023-03-22T09:01:20.875Z,56.97
2023-03-22T09:05:20.760Z,51.43
2023-03-22T09:09:20.769Z,52.85
2023-03-22T09:13:20.706Z,38.17
2023-03-22T09:17:22.402Z,37.94
2023-03-22T09:21:20.616Z,21.37
2023-03-22T09:25:20.575Z,29.66
2023-03-22T09:29:20.562Z,42.78
2023-03-22T09:33:20.617Z,0.00
2023-03-22T09:37:20.646Z,9.13
2023-03-22T09:41:20.833Z,31.38
2023-03-22T09:45:20.804Z,97.55
2023-03-22T09:49:20.777Z,160.33
2023-03-22T09:53:20.746Z,208.94
2023-03-22T09:57:20.702Z,249.85
2023-03-22T10:01:21.167Z,247.16
2023-03-22T10:05:20.750Z,246.20
2023-03-22T10:09:20.630Z,204.57
2023-03-22T10:13:20.547Z,101.17
2023-03-22T10:17:20.503Z,64.63
2023-03-22T10:21:20.497Z,71.67
2023-03-22T10:25:20.476Z,81.70
2023-03-22T10:29:20.401Z,58.72
2023-03-22T10:33:20.376Z,40.93
2023-03-22T10:37:20.404Z,46.49
2023-03-22T10:41:20.329Z,83.93
2023-03-22T10:45:20.362Z,139.87
2023-03-22T10:49:20.396Z,190.87
2023-03-22T10:53:20.365Z,216.94
2023-03-22T10:57:20.328Z,224.00
2023-03-22T11:01:20.471Z,235.64
2023-03-22T11:05:20.282Z,242.58
2023-03-22T11:09:20.261Z,244.99
2023-03-22T11:13:20.301Z,248.13
2023-03-22T11:17:20.138Z,244.13
2023-03-22T11:21:20.308Z,239.80
2023-03-22T11:25:20.136Z,237.00
2023-03-22T11:29:20.181Z,237.84
2023-03-22T11:33:20.019Z,196.74
2023-03-22T11:37:20.012Z,201.10
2023-03-22T11:41:20.136Z,213.83
2023-03-22T11:45:19.879Z,214.22
2023-03-22T11:49:19.840Z,222.68
2023-03-22T11:53:19.846Z,221.42
2023-03-22T11:57:19.836Z,208.75
2023-03-22T12:01:19.746Z,218.08
2023-03-22T12:05:19.798Z,222.75
2023-03-22T12:09:19.747Z,215.38
2023-03-22T12:13:19.727Z,211.16
2023-03-22T12:17:19.767Z,233.55
2023-03-22T12:21:19.716Z,203.76
2023-03-22T12:25:19.754Z,131.81
2023-03-22T12:29:19.879Z,97.25
2023-03-22T12:33:19.939Z,55.95
2023-03-22T12:37:20.029Z,34.92
2023-03-22T12:41:20.163Z,25.00
2023-03-22T12:45:20.312Z,42.67
2023-03-22T12:49:20.522Z,50.00
2023-03-22T12:53:20.760Z,67.11
2023-03-22T12:57:20.901Z,119.68
2023-03-22T13:01:21.111Z,142.52
2023-03-22T13:05:21.078Z,175.59
2023-03-22T13:09:21.133Z,198.75
2023-03-22T13:13:21.261Z,201.93
2023-03-22T13:17:21.175Z,222.29
2023-03-22T13:21:21.241Z,225.53
2023-03-22T13:25:21.181Z,229.14
2023-03-22T13:29:21.236Z,228.94
2023-03-22T13:33:21.326Z,241.33
2023-03-22T13:37:21.264Z,239.00
2023-03-22T13:41:21.366Z,243.85
2023-03-22T13:45:21.456Z,248.25
2023-03-22T13:49:21.452Z,241.30
2023-03-22T13:53:21.643Z,223.94
2023-03-22T13:57:21.517Z,219.36
2023-03-22T14:01:21.764Z,202.83
2023-03-22T14:05:21.965Z,197.24
2023-03-22T14:09:21.904Z,206.21
2023-03-22T14:13:21.883Z,208.80
2023-03-22T14:17:21.842Z,209.76
2023-03-22T14:21:21.820Z,215.13
2023-03-22T14:46:12.011Z,25.00
2023-03-22T14:50:11.903Z,31.51
2023-03-22T14:54:11.953Z,29.57
2023-03-22T14:58:11.852Z,51.56
2023-03-22T15:02:11.857Z,42.90
2023-03-22T15:06:11.791Z,72.43
2023-03-22T15:10:11.731Z,98.18
2023-03-22T15:14:11.756Z,81.79
2023-03-22T15:18:11.722Z,50.47
2023-03-22T15:22:11.905Z,19.45
2023-03-22T15:26:12.125Z,60.61
2023-03-22T15:30:12.274Z,39.74
2023-03-22T15:34:12.487Z,93.40
2023-03-22T15:38:12.459Z,87.87
2023-03-22T15:42:12.452Z,112.01
2023-03-22T15:46:12.485Z,144.93
2023-03-22T15:50:12.387Z,159.62
2023-03-22T15:54:12.318Z,160.92
2023-03-22T15:58:12.253Z,172.11
2023-03-22T16:02:12.259Z,171.13
2023-03-22T16:06:12.191Z,189.19
2023-03-22T16:10:12.197Z,182.07
2023-03-22T16:14:12.136Z,192.04
2023-03-22T16:18:12.095Z,203.26
2023-03-22T16:22:12.188Z,197.68
2023-03-22T16:26:12.297Z,184.16
2023-03-22T16:30:12.239Z,190.07
2023-03-22T16:34:12.246Z,168.41
2023-03-22T16:38:12.311Z,155.24
2023-03-22T16:42:12.361Z,155.94
2023-03-22T16:46:12.385Z,155.61
2023-03-22T16:50:12.465Z,145.95
2023-03-22T16:54:12.548Z,127.93
2023-03-22T16:58:12.690Z,118.11
2023-03-22T17:02:12.839Z,123.05
2023-03-22T17:06:12.993Z,145.94
2023-03-22T17:10:13.205Z,154.86
2023-03-22T17:14:13.168Z,171.93
2023-03-22T17:18:13.129Z,166.58
2023-03-22T17:22:13.124Z,164.71
2023-03-22T17:26:13.075Z,169.43
2023-03-22T17:30:12.998Z,139.82
2023-03-22T17:34:13.033Z,163.82
2023-03-22T17:38:14.066Z,157.55
2023-03-22T17:42:12.905Z,132.85
2023-03-22T17:46:57.299Z,141.38
2023-03-22T17:50:13.816Z,142.83
2023-03-22T17:54:48.906Z,164.35
2023-03-22T17:58:31.481Z,174.40
2023-03-22T18:02:16.231Z,185.37
2023-03-22T18:06:13.703Z,187.10
2023-03-22T18:10:12.643Z,191.73
2023-03-22T18:14:24.970Z,191.71
2023-03-22T18:18:13.550Z,184.83
2023-03-22T18:22:12.570Z,175.98
2023-03-22T18:26:27.408Z,166.49
2023-03-22T18:30:13.486Z,163.68
2023-03-22T18:34:12.434Z,155.05
2023-03-22T18:38:17.753Z,132.81
2023-03-22T18:42:20.561Z,253.91
2023-03-22T18:46:19.028Z,205.58
2023-03-22T18:50:13.311Z,186.51
2023-03-22T18:54:12.288Z,211.42
2023-03-22T18:58:12.235Z,191.68
2023-03-22T19:02:18.165Z,184.57
2023-03-22T19:06:13.146Z,170.87
2023-03-22T19:10:12.112Z,145.54
2023-03-22T19:14:54.821Z,135.97
2023-03-22T19:18:13.094Z,124.24
2023-03-22T19:22:11.997Z,133.50
2023-03-22T19:26:11.963Z,153.04
2023-03-22T19:30:12.042Z,160.81
2023-03-22T19:34:12.181Z,177.64
2023-03-22T19:38:12.219Z,189.34
2023-03-22T19:42:12.414Z,198.38
2023-03-22T19:46:12.438Z,211.43
2023-03-22T19:50:12.560Z,231.63
2023-03-22T19:58:13.634Z,244.11
2023-03-22T20:02:12.582Z,248.20
2023-03-22T20:06:12.512Z,247.02
2023-03-22T20:10:12.499Z,247.49
2023-03-22T20:14:12.565Z,247.57
2023-03-22T20:18:12.704Z,248.65
2023-03-22T20:22:12.779Z,248.46
2023-03-22T20:26:12.912Z,249.26
2023-03-22T20:30:13.045Z,247.95
2023-03-22T20:34:13.120Z,246.58
2023-03-22T20:38:13.238Z,248.81
2023-03-22T20:42:13.377Z,249.55
2023-03-22T20:46:13.498Z,247.63
2023-03-22T20:50:13.608Z,248.13
2023-03-22T20:54:13.779Z,248.69
2023-03-22T20:58:13.834Z,247.87
2023-03-22T21:02:13.972Z,249.20
2023-03-22T21:06:14.103Z,248.25
2023-03-22T21:10:14.223Z,248.78
2023-03-22T21:14:15.836Z,246.76
2023-03-22T21:18:14.550Z,246.47
2023-03-22T21:22:14.679Z,245.59
2023-03-22T21:26:14.808Z,249.67
2023-03-22T21:30:14.933Z,247.88
2023-03-22T21:34:15.054Z,246.65
2023-03-22T21:38:15.213Z,249.09
2023-03-22T21:42:15.376Z,244.75
2023-03-22T21:46:15.506Z,245.19
2023-03-22T21:50:15.683Z,247.01
2023-03-22T21:54:15.780Z,244.98
2023-03-22T21:58:15.984Z,243.56
2023-03-22T22:02:16.149Z,246.10
2023-03-22T22:06:16.352Z,245.64
2023-03-22T22:10:16.496Z,244.90
2023-03-22T22:14:16.648Z,247.05
2023-03-22T22:18:16.849Z,245.50
2023-03-22T22:22:17.319Z,242.31
2023-03-22T22:26:17.311Z,245.18
2023-03-22T22:30:17.446Z,244.99
2023-03-22T22:34:17.628Z,243.35
2023-03-22T22:38:17.861Z,242.00
2023-03-22T22:42:18.052Z,242.56
2023-03-22T22:46:18.262Z,243.84
2023-03-22T22:50:18.495Z,243.32
2023-03-22T22:54:18.736Z,242.64
2023-03-22T22:58:18.895Z,241.41
2023-03-22T23:02:19.103Z,241.50
2023-03-22T23:06:19.311Z,240.30
2023-03-22T23:10:19.475Z,240.95
2023-03-22T23:14:19.718Z,239.10
2023-03-22T23:18:19.962Z,237.74
2023-03-22T23:22:20.153Z,240.38
2023-03-22T23:26:20.147Z,238.67
2023-03-22T23:30:20.103Z,239.02
2023-03-22T23:34:20.036Z,238.72
2023-03-22T23:38:20.054Z,239.10
2023-03-22T23:42:19.972Z,236.40
2023-03-22T23:46:19.949Z,237.12
2023-03-22T23:50:19.934Z,238.55
2023-03-22T23:54:19.903Z,236.17
2023-03-22T23:58:19.884Z,234.47
